createdAt,value
2023-05-20T00:02:40.663Z,63.40
2023-05-20T00:05:44.291Z,63.40
2023-05-20T00:08:46.345Z,63.40
2023-05-20T00:11:48.371Z,63.60
2023-05-20T00:14:50.507Z,63.60
2023-05-20T00:17:52.637Z,64.00
2023-05-20T00:20:55.282Z,63.40
2023-05-20T00:23:58.189Z,63.10
2023-05-20T00:27:00.272Z,63.10
2023-05-20T00:30:05.727Z,63.30
2023-05-20T00:33:08.188Z,63.60
2023-05-20T00:36:10.421Z,63.50
2023-05-20T00:39:12.765Z,63.40
2023-05-20T00:42:25.668Z,63.90
2023-05-20T00:45:31.027Z,63.90
2023-05-20T00:48:41.407Z,63.50
2023-05-20T00:51:43.661Z,63.70
2023-05-20T00:54:46.179Z,63.50
2023-05-20T00:57:49.686Z,63.70
2023-05-20T01:00:52.398Z,63.80
2023-05-20T01:03:54.621Z,63.50
2023-05-20T01:06:57.757Z,63.40
2023-05-20T01:10:00.442Z,63.20
2023-05-20T01:13:08.888Z,63.50
2023-05-20T01:16:26.790Z,63.20
2023-05-20T01:19:37.188Z,63.20
2023-05-20T01:23:00.124Z,63.40
2023-05-20T01:26:02.848Z,63.10
2023-05-20T01:29:05.093Z,63.30
2023-05-20T01:32:16.743Z,62.80
2023-05-20T01:35:19.354Z,62.90
2023-05-20T01:38:23.724Z,62.60
2023-05-20T01:41:27.027Z,62.90
2023-05-20T01:44:29.296Z,62.80
2023-05-20T01:47:31.509Z,62.70
2023-05-20T01:50:33.706Z,63.10
2023-05-20T01:53:35.853Z,62.80
2023-05-20T01:56:38.053Z,63.00
2023-05-20T01:59:40.270Z,62.70
2023-05-20T02:02:42.595Z,62.80
2023-05-20T02:05:44.942Z,62.70
2023-05-20T02:08:47.118Z,62.60
2023-05-20T02:11:49.405Z,62.50
2023-05-20T02:14:51.790Z,62.10
2023-05-20T02:17:53.994Z,61.60
2023-05-20T02:20:56.381Z,60.90
2023-05-20T02:23:58.587Z,60.70
2023-05-20T02:27:01.820Z,60.40
2023-05-20T02:30:04.154Z,60.20
2023-05-20T02:33:07.240Z,59.60
2023-05-20T02:36:09.398Z,60.10
2023-05-20T02:39:11.658Z,59.00
2023-05-20T02:42:13.736Z,59.00
2023-05-20T02:45:18.321Z,58.90
2023-05-20T02:48:20.480Z,58.70
2023-05-20T02:51:24.286Z,58.60
2023-05-20T02:54:26.415Z,58.80
2023-05-20T02:57:28.601Z,58.50
2023-05-20T03:00:31.627Z,59.00
2023-05-20T03:03:33.775Z,58.60
2023-05-20T03:06:35.933Z,58.50
2023-05-20T03:09:38.076Z,58.40
2023-05-20T03:12:46.943Z,58.50
2023-05-20T03:15:49.161Z,58.30
2023-05-20T03:18:52.238Z,58.00
2023-05-20T03:21:54.480Z,57.90
2023-05-20T03:24:57.208Z,57.90
2023-05-20T03:27:59.997Z,57.60
2023-05-20T03:31:03.359Z,57.50
2023-05-20T03:34:05.649Z,57.50
2023-05-20T03:37:08.653Z,57.40
2023-05-20T03:40:11.478Z,57.10
2023-05-20T03:43:13.521Z,56.90
2023-05-20T03:46:15.803Z,56.70
2023-05-20T03:49:17.923Z,56.10
2023-05-20T03:52:20.032Z,55.50
2023-05-20T03:55:22.165Z,55.20
2023-05-20T03:58:25.409Z,54.90
2023-05-20T04:01:28.359Z,54.30
2023-05-20T04:04:30.879Z,53.70
2023-05-20T04:07:32.988Z,53.50
2023-05-20T04:10:35.246Z,53.30
2023-05-20T04:13:37.457Z,53.10
2023-05-20T04:16:40.631Z,53.10
2023-05-20T04:19:42.761Z,53.00
2023-05-20T04:22:48.392Z,52.70
2023-05-20T04:25:50.692Z,52.90
2023-05-20T04:28:53.304Z,52.60
2023-05-20T04:31:58.855Z,52.60
2023-05-20T04:35:02.317Z,52.90
2023-05-20T04:38:04.437Z,53.20
2023-05-20T04:41:07.269Z,53.40
2023-05-20T04:44:09.674Z,53.70
2023-05-20T04:47:12.894Z,54.00
2023-05-20T04:50:15.982Z,54.20
2023-05-20T04:53:19.033Z,54.60
2023-05-20T04:56:21.131Z,54.50
2023-05-20T04:59:23.234Z,54.70
2023-05-20T05:02:25.985Z,54.30
2023-05-20T05:05:28.029Z,54.10
2023-05-20T05:08:30.277Z,53.80
2023-05-20T05:11:32.368Z,54.20
2023-05-20T05:14:34.488Z,54.30
2023-05-20T05:17:36.819Z,54.50
2023-05-20T05:20:39.169Z,54.80
2023-05-20T05:23:42.666Z,55.10
2023-05-20T05:26:44.891Z,55.00
2023-05-20T05:29:47.051Z,55.40
2023-05-20T05:32:49.812Z,56.00
2023-05-20T05:35:52.383Z,56.20
2023-05-20T05:38:54.580Z,56.80
2023-05-20T05:41:56.715Z,57.10
2023-05-20T05:44:58.803Z,57.50
2023-05-20T05:48:01.073Z,58.20
2023-05-20T05:51:03.278Z,58.30
2023-05-20T05:54:05.528Z,58.50
2023-05-20T05:57:08.038Z,59.00
2023-05-20T06:00:10.765Z,58.60
2023-05-20T06:03:12.958Z,58.70
2023-05-20T06:06:15.243Z,58.10
2023-05-20T06:09:17.363Z,58.30
2023-05-20T06:12:19.433Z,57.70
2023-05-20T06:15:21.535Z,57.30
2023-05-20T06:18:23.677Z,57.30
2023-05-20T06:21:26.021Z,57.50
2023-05-20T06:24:28.184Z,57.50
2023-05-20T06:27:30.397Z,57.40
2023-05-20T06:30:32.515Z,57.00
2023-05-20T06:33:35.556Z,57.00
2023-05-20T06:36:37.802Z,56.70
2023-05-20T06:39:40.418Z,56.40
2023-05-20T06:42:42.619Z,56.10
2023-05-20T06:45:45.894Z,56.20
2023-05-20T06:48:47.938Z,56.20
2023-05-20T06:51:50.657Z,55.90
2023-05-20T06:54:52.736Z,55.40
2023-05-20T06:57:54.817Z,55.80
2023-05-20T07:00:56.892Z,55.60
2023-05-20T07:03:59.107Z,55.90
2023-05-20T07:07:01.156Z,56.00
2023-05-20T07:10:05.881Z,55.70
2023-05-20T07:13:08.047Z,55.60
2023-05-20T07:16:10.287Z,54.80
2023-05-20T07:19:12.536Z,54.80
2023-05-20T07:22:14.720Z,54.90
2023-05-20T07:25:17.123Z,54.90
2023-05-20T07:28:20.471Z,55.10
2023-05-20T07:31:22.797Z,55.10
2023-05-20T07:34:25.135Z,54.90
2023-05-20T07:37:27.526Z,54.80
2023-05-20T07:40:32.382Z,54.90
2023-05-20T07:43:34.574Z,55.30
2023-05-20T07:46:38.327Z,54.70
2023-05-20T07:49:40.657Z,53.50
2023-05-20T07:52:55.386Z,54.20
2023-05-20T07:55:59.633Z,54.60
2023-05-20T07:59:03.544Z,54.30
2023-05-20T08:02:06.143Z,54.00
2023-05-20T08:05:08.929Z,54.00
2023-05-20T08:08:11.040Z,54.70
2023-05-20T08:11:13.719Z,54.60
2023-05-20T08:14:16.051Z,54.30
2023-05-20T08:17:18.661Z,53.40
2023-05-20T08:20:21.200Z,53.60
2023-05-20T08:23:23.355Z,52.30
2023-05-20T08:26:25.465Z,52.50
2023-05-20T08:29:27.700Z,51.90
2023-05-20T08:32:29.910Z,50.20
2023-05-20T08:35:32.391Z,50.40
2023-05-20T08:38:34.708Z,50.90
2023-05-20T08:41:39.331Z,50.90
2023-05-20T08:44:42.404Z,51.30
2023-05-20T08:47:45.291Z,50.60
2023-05-20T08:50:56.064Z,49.70
2023-05-20T08:54:00.457Z,49.70
2023-05-20T08:57:02.854Z,48.60
2023-05-20T09:00:09.643Z,48.50
2023-05-20T09:03:11.847Z,50.30
2023-05-20T09:06:20.408Z,49.70
2023-05-20T09:09:22.652Z,48.40
2023-05-20T09:12:24.761Z,46.30
2023-05-20T09:15:26.834Z,43.40
2023-05-20T09:18:29.605Z,42.50
2023-05-20T09:21:31.933Z,40.80
2023-05-20T09:24:34.131Z,39.10
2023-05-20T09:27:37.333Z,37.70
2023-05-20T09:30:40.417Z,37.80
2023-05-20T09:33:43.087Z,37.70
2023-05-20T09:36:45.737Z,37.00
2023-05-20T09:39:51.244Z,36.70
2023-05-20T09:43:04.428Z,36.00
2023-05-20T09:46:07.373Z,37.60
2023-05-20T09:49:10.299Z,39.10
2023-05-20T09:52:14.164Z,37.90
2023-05-20T09:55:20.284Z,37.60
2023-05-20T09:58:24.196Z,36.40
2023-05-20T10:01:26.384Z,35.70
2023-05-20T10:04:30.536Z,33.70
2023-05-20T10:07:42.843Z,34.80
2023-05-20T10:11:17.583Z,35.50
2023-05-20T10:14:38.577Z,38.20
2023-05-20T10:18:13.981Z,36.80
2023-05-20T10:21:17.613Z,36.80
2023-05-20T10:24:31.778Z,36.80
2023-05-20T10:27:46.665Z,36.70
2023-05-20T10:30:51.919Z,36.40
2023-05-20T10:33:54.908Z,38.20
2023-05-20T10:36:57.692Z,38.80
2023-05-20T10:40:14.513Z,38.60
2023-05-20T10:43:36.920Z,38.90
2023-05-20T10:47:06.759Z,40.40
2023-05-20T10:50:02.946Z,39.50
2023-05-20T10:53:08.253Z,39.60
2023-05-20T10:56:23.051Z,40.00
2023-05-20T10:59:25.359Z,39.50
2023-05-20T11:02:28.984Z,39.40
2023-05-20T11:05:32.779Z,40.50
2023-05-20T11:08:35.371Z,39.60
2023-05-20T11:11:38.783Z,39.30
2023-05-20T11:14:40.988Z,37.70
2023-05-20T11:17:56.453Z,37.20
2023-05-20T11:20:59.744Z,34.20
2023-05-20T11:24:03.943Z,34.50
2023-05-20T11:27:06.938Z,35.00
2023-05-20T11:30:11.262Z,36.10
2023-05-20T11:33:15.308Z,34.90
2023-05-20T11:36:27.391Z,35.00
2023-05-20T11:39:31.401Z,35.10
2023-05-20T11:42:37.871Z,35.90
2023-05-20T11:45:40.965Z,35.90
2023-05-20T11:48:55.692Z,36.60
2023-05-20T11:51:58.453Z,37.40
2023-05-20T11:55:00.585Z,37.60
2023-05-20T11:58:04.239Z,37.30
2023-05-20T12:01:21.116Z,36.80
2023-05-20T12:04:24.872Z,36.00
2023-05-20T12:07:27.013Z,35.30
2023-05-20T12:10:29.163Z,36.40
2023-05-20T12:13:32.544Z,36.00
2023-05-20T12:16:36.632Z,34.90
2023-05-20T12:19:39.894Z,35.10
2023-05-20T12:22:46.341Z,34.00
2023-05-20T12:25:50.090Z,35.40
2023-05-20T12:28:52.563Z,34.50
2023-05-20T12:31:54.823Z,36.00
2023-05-20T12:34:56.961Z,36.10
2023-05-20T12:37:59.088Z,36.50
2023-05-20T12:41:02.173Z,35.90
2023-05-20T12:44:04.466Z,34.50
2023-05-20T12:47:06.628Z,35.80
2023-05-20T12:50:09.234Z,35.90
2023-05-20T12:53:12.354Z,37.10
2023-05-20T12:56:14.586Z,36.50
2023-05-20T12:59:16.646Z,35.90
2023-05-20T13:02:20.823Z,34.40
2023-05-20T13:05:23.136Z,35.70
2023-05-20T13:08:26.624Z,34.60
2023-05-20T13:11:30.714Z,34.10
2023-05-20T13:14:32.894Z,33.70
2023-05-20T13:17:38.317Z,33.40
2023-05-20T13:20:40.644Z,33.60
2023-05-20T13:23:43.112Z,32.10
2023-05-20T13:26:45.816Z,33.40
2023-05-20T13:29:51.144Z,33.20
2023-05-20T13:32:53.511Z,33.50
2023-05-20T13:35:55.705Z,34.80
2023-05-20T13:39:01.591Z,35.40
2023-05-20T13:42:04.492Z,35.30
2023-05-20T13:45:07.217Z,35.70
2023-05-20T13:48:09.483Z,36.90
2023-05-20T13:51:12.082Z,37.20
2023-05-20T13:54:15.288Z,37.20
2023-05-20T13:57:17.457Z,37.90
2023-05-20T14:00:20.140Z,38.20
2023-05-20T14:03:22.489Z,38.50
2023-05-20T14:06:24.935Z,39.20
2023-05-20T14:09:27.151Z,39.30
2023-05-20T14:12:29.272Z,38.40
2023-05-20T14:15:33.588Z,37.70
2023-05-20T14:18:36.775Z,37.80
2023-05-20T14:21:38.958Z,37.30
2023-05-20T14:24:42.054Z,36.20
2023-05-20T14:27:45.818Z,35.80
2023-05-20T14:30:48.362Z,35.30
2023-05-20T14:33:50.845Z,35.40
2023-05-20T14:36:53.000Z,36.50
2023-05-20T14:39:55.800Z,36.60
2023-05-20T14:42:57.970Z,37.30
2023-05-20T14:46:00.402Z,37.30
2023-05-20T14:49:02.648Z,37.10
2023-05-20T14:52:05.636Z,37.60
2023-05-20T14:55:08.353Z,37.80
2023-05-20T14:58:10.558Z,37.90
2023-05-20T15:01:14.466Z,38.10
2023-05-20T15:04:16.789Z,37.60
2023-05-20T15:07:18.866Z,38.00
2023-05-20T15:10:23.047Z,38.60
2023-05-20T15:13:25.281Z,39.50
2023-05-20T15:16:27.572Z,40.70
2023-05-20T15:19:41.426Z,41.40
2023-05-20T15:22:47.974Z,41.40
2023-05-20T15:25:52.252Z,42.20
2023-05-20T15:28:55.698Z,42.60
2023-05-20T15:31:58.936Z,43.30
2023-05-20T15:35:02.882Z,42.60
2023-05-20T15:38:05.917Z,41.30
2023-05-20T15:41:15.501Z,41.00
2023-05-20T15:44:20.884Z,40.40
2023-05-20T15:47:23.583Z,38.70
2023-05-20T15:50:26.183Z,38.20
2023-05-20T15:53:29.536Z,37.70
2023-05-20T15:56:31.952Z,38.10
2023-05-20T15:59:34.047Z,37.40
2023-05-20T16:02:36.950Z,38.00
2023-05-20T16:05:39.217Z,38.00
2023-05-20T16:08:41.841Z,37.10
2023-05-20T16:11:45.011Z,37.60
2023-05-20T16:14:47.430Z,36.90
2023-05-20T16:17:49.593Z,36.10
2023-05-20T16:20:51.824Z,37.80
2023-05-20T16:23:54.033Z,38.80
2023-05-20T16:26:56.200Z,38.20
2023-05-20T16:29:58.288Z,41.20
2023-05-20T16:33:02.149Z,39.60
2023-05-20T16:36:04.406Z,39.60
2023-05-20T16:39:07.098Z,37.30
2023-05-20T16:42:09.370Z,38.00
2023-05-20T16:45:11.966Z,39.40
2023-05-20T16:48:14.011Z,39.80
2023-05-20T16:51:16.491Z,40.40
2023-05-20T16:54:19.492Z,40.70
2023-05-20T16:57:21.697Z,40.50
2023-05-20T17:00:23.842Z,40.30
2023-05-20T17:03:28.311Z,41.40
2023-05-20T17:06:34.197Z,41.10
2023-05-20T17:09:37.712Z,39.30
2023-05-20T17:12:39.802Z,39.90
2023-05-20T17:15:42.017Z,39.40
2023-05-20T17:18:44.191Z,39.70
2023-05-20T17:21:46.293Z,39.20
2023-05-20T17:24:48.423Z,38.40
2023-05-20T17:27:50.970Z,39.20
2023-05-20T17:30:53.105Z,38.00
2023-05-20T17:33:55.753Z,37.90
2023-05-20T17:36:58.310Z,37.80
2023-05-20T17:40:00.661Z,38.30
2023-05-20T17:43:02.813Z,37.90
2023-05-20T17:46:06.209Z,39.10
2023-05-20T17:49:08.789Z,40.30
2023-05-20T17:52:11.945Z,41.30
2023-05-20T17:55:14.723Z,42.90
2023-05-20T17:58:17.082Z,43.20
2023-05-20T18:01:19.176Z,43.60
2023-05-20T18:04:22.013Z,43.20
2023-05-20T18:07:27.170Z,42.70
2023-05-20T18:10:29.462Z,42.80
2023-05-20T18:13:31.662Z,42.30
2023-05-20T18:16:33.804Z,42.90
2023-05-20T18:19:36.134Z,42.90
2023-05-20T18:22:42.790Z,43.30
2023-05-20T18:25:44.843Z,43.10
2023-05-20T18:28:47.067Z,42.80
2023-05-20T18:31:49.578Z,45.60
2023-05-20T18:34:51.686Z,46.90
2023-05-20T18:37:57.200Z,45.20
2023-05-20T18:40:59.902Z,45.40
2023-05-20T18:44:05.791Z,45.30
2023-05-20T18:47:08.109Z,46.00
2023-05-20T18:50:10.872Z,45.90
2023-05-20T18:53:12.980Z,46.60
2023-05-20T18:56:15.198Z,47.40
2023-05-20T18:59:17.438Z,46.90
2023-05-20T19:02:19.669Z,47.30
2023-05-20T19:05:23.330Z,47.70
2023-05-20T19:08:27.495Z,48.30
2023-05-20T19:11:29.721Z,48.60
2023-05-20T19:14:32.086Z,49.30
2023-05-20T19:17:34.202Z,49.80
2023-05-20T19:20:36.613Z,50.70
2023-05-20T19:23:38.806Z,51.30
2023-05-20T19:26:41.532Z,51.40
2023-05-20T19:29:43.710Z,52.40
2023-05-20T19:32:46.196Z,53.00
2023-05-20T19:35:48.466Z,53.00
2023-05-20T19:38:50.699Z,53.60
2023-05-20T19:41:53.543Z,54.60
2023-05-20T19:44:56.380Z,53.80
2023-05-20T19:47:58.925Z,52.90
2023-05-20T19:51:02.662Z,52.30
2023-05-20T19:54:04.780Z,52.70
2023-05-20T19:57:06.927Z,53.20
2023-05-20T20:00:11.438Z,53.70
2023-05-20T20:03:13.919Z,54.20
2023-05-20T20:06:15.975Z,53.70
2023-05-20T20:09:18.344Z,54.80
2023-05-20T20:12:20.568Z,55.00
2023-05-20T20:15:22.921Z,56.00
2023-05-20T20:18:25.721Z,56.50
2023-05-20T20:21:27.854Z,56.60
2023-05-20T20:24:29.957Z,57.30
2023-05-20T20:27:33.678Z,56.10
2023-05-20T20:30:36.380Z,55.80
2023-05-20T20:33:38.552Z,56.10
2023-05-20T20:36:40.850Z,56.40
2023-05-20T20:39:47.892Z,56.20
2023-05-20T20:42:50.108Z,56.30
2023-05-20T20:45:56.423Z,56.20
2023-05-20T20:48:59.552Z,56.50
2023-05-20T20:52:02.108Z,56.80
2023-05-20T20:55:04.885Z,57.00
2023-05-20T20:58:08.339Z,56.90
2023-05-20T21:01:10.466Z,56.70
2023-05-20T21:04:14.105Z,56.90
2023-05-20T21:07:18.372Z,56.90
2023-05-20T21:10:20.869Z,56.60
2023-05-20T21:13:23.020Z,57.20
2023-05-20T21:16:25.270Z,57.40
2023-05-20T21:19:27.505Z,57.70
2023-05-20T21:22:29.663Z,57.30
2023-05-20T21:25:31.828Z,57.70
2023-05-20T21:28:34.059Z,57.80
2023-05-20T21:31:36.358Z,58.30
2023-05-20T21:34:38.471Z,58.20
2023-05-20T21:37:40.565Z,58.60
2023-05-20T21:40:43.360Z,58.60
2023-05-20T21:43:55.365Z,58.40
2023-05-20T21:46:57.657Z,58.70
2023-05-20T21:49:59.873Z,58.60
2023-05-20T21:53:02.107Z,58.60
2023-05-20T21:56:04.421Z,58.90
2023-05-20T21:59:06.685Z,59.40
2023-05-20T22:02:08.915Z,59.50
2023-05-20T22:05:12.075Z,59.60
2023-05-20T22:08:14.297Z,59.80
2023-05-20T22:11:17.769Z,60.10
2023-05-20T22:14:19.876Z,60.10
2023-05-20T22:17:26.591Z,60.30
2023-05-20T22:20:30.542Z,60.80
2023-05-20T22:23:32.626Z,60.80
2023-05-20T22:26:35.245Z,60.90
2023-05-20T22:29:37.425Z,60.90
2023-05-20T22:32:43.204Z,60.90
2023-05-20T22:35:45.407Z,60.80
2023-05-20T22:38:47.592Z,61.30
2023-05-20T22:41:49.781Z,61.40
2023-05-20T22:44:55.272Z,61.50
2023-05-20T22:47:57.948Z,61.50
2023-05-20T22:51:01.297Z,61.90
2023-05-20T22:54:03.744Z,62.20
2023-05-20T22:57:06.091Z,62.60
2023-05-20T23:00:12.371Z,61.80
2023-05-20T23:03:18.356Z,62.70
2023-05-20T23:06:22.840Z,62.20
2023-05-20T23:09:24.988Z,62.70
2023-05-20T23:12:29.107Z,62.60
2023-05-20T23:15:32.667Z,62.90
2023-05-20T23:18:35.613Z,63.00
2023-05-20T23:21:38.290Z,63.40
2023-05-20T23:24:40.827Z,63.20
2023-05-20T23:27:43.663Z,63.10
2023-05-20T23:30:48.506Z,63.40
2023-05-20T23:33:50.910Z,63.60
2023-05-20T23:36:53.738Z,63.70
2023-05-20T23:39:55.800Z,63.40
2023-05-20T23:42:58.133Z,63.50
2023-05-20T23:46:00.300Z,63.70
2023-05-20T23:49:02.849Z,64.00
2023-05-20T23:52:05.266Z,63.80
2023-05-20T23:55:10.616Z,64.00
2023-05-20T23:58:15.332Z,63.80
